sensor_id;sensor_type;location;lat;lon;timestamp;pressure;altitude;pressure_sealevel;temperature;humidity
65359;BME280;52491;45.900;6.346;2024-03-08T00:00:41;93264.19;;;22.46;29.40
65359;BME280;52491;45.900;6.346;2024-03-08T00:03:08;93255.66;;;22.49;29.45
65359;BME280;52491;45.900;6.346;2024-03-08T00:05:36;93262.84;;;22.48;29.35
65359;BME280;52491;45.900;6.346;2024-03-08T00:08:05;93249.31;;;22.45;29.35
65359;BME280;52491;45.900;6.346;2024-03-08T00:10:31;93256.50;;;22.44;29.19
65359;BME280;52491;45.900;6.346;2024-03-08T00:12:57;93261.81;;;22.44;29.47
65359;BME280;52491;45.900;6.346;2024-03-08T00:15:23;93259.16;;;22.44;29.29
65359;BME280;52491;45.900;6.346;2024-03-08T00:17:49;93265.78;;;22.47;29.20
65359;BME280;52491;45.900;6.346;2024-03-08T00:20:16;93258.06;;;22.45;29.18
65359;BME280;52491;45.900;6.346;2024-03-08T00:22:43;93255.16;;;22.47;29.08
65359;BME280;52491;45.900;6.346;2024-03-08T00:25:09;93254.88;;;22.48;29.12
65359;BME280;52491;45.900;6.346;2024-03-08T00:27:35;93258.84;;;22.46;28.98
65359;BME280;52491;45.900;6.346;2024-03-08T00:30:02;93257.03;;;22.46;29.09
65359;BME280;52491;45.900;6.346;2024-03-08T00:32:27;93259.16;;;22.44;28.85
65359;BME280;52491;45.900;6.346;2024-03-08T00:34:54;93257.53;;;22.43;29.05
65359;BME280;52491;45.900;6.346;2024-03-08T00:37:21;93257.53;;;22.43;28.91
65359;BME280;52491;45.900;6.346;2024-03-08T00:39:48;93255.41;;;22.40;28.98
65359;BME280;52491;45.900;6.346;2024-03-08T00:42:15;93252.22;;;22.43;29.03
65359;BME280;52491;45.900;6.346;2024-03-08T00:44:41;93251.44;;;22.43;28.91
65359;BME280;52491;45.900;6.346;2024-03-08T00:47:06;93238.69;;;22.40;28.79
65359;BME280;52491;45.900;6.346;2024-03-08T00:49:32;93242.13;;;22.40;28.93
65359;BME280;52491;45.900;6.346;2024-03-08T00:51:58;93245.84;;;22.39;28.87
65359;BME280;52491;45.900;6.346;2024-03-08T00:54:23;93248.50;;;22.39;28.87
65359;BME280;52491;45.900;6.346;2024-03-08T00:56:49;93239.50;;;22.35;28.76
65359;BME280;52491;45.900;6.346;2024-03-08T00:59:15;93251.69;;;22.36;28.86
65359;BME280;52491;45.900;6.346;2024-03-08T01:01:41;93236.31;;;22.33;28.88
65359;BME280;52491;45.900;6.346;2024-03-08T01:04:07;93242.41;;;22.33;28.78
65359;BME280;52491;45.900;6.346;2024-03-08T01:06:34;93238.16;;;22.32;28.77
65359;BME280;52491;45.900;6.346;2024-03-08T01:08:59;93237.63;;;22.30;28.67
65359;BME280;52491;45.900;6.346;2024-03-08T01:11:25;93236.03;;;22.29;28.85
65359;BME280;52491;45.900;6.346;2024-03-08T01:13:51;93235.75;;;22.26;28.69
65359;BME280;52491;45.900;6.346;2024-03-08T01:16:17;93229.13;;;22.28;28.77
65359;BME280;52491;45.900;6.346;2024-03-08T01:18:43;93230.44;;;22.26;28.70
65359;BME280;52491;45.900;6.346;2024-03-08T01:21:09;93227.78;;;22.26;28.70
65359;BME280;52491;45.900;6.346;2024-03-08T01:23:34;93221.97;;;22.24;28.69
65359;BME280;52491;45.900;6.346;2024-03-08T01:26:00;93220.09;;;22.24;28.80
65359;BME280;52491;45.900;6.346;2024-03-08T01:28:27;93215.03;;;22.23;28.67
65359;BME280;52491;45.900;6.346;2024-03-08T01:30:53;93211.84;;;22.21;28.49
65359;BME280;52491;45.900;6.346;2024-03-08T01:33:20;93208.16;;;22.22;28.54
65359;BME280;52491;45.900;6.346;2024-03-08T01:35:48;93204.41;;;22.23;28.46
65359;BME280;52491;45.900;6.346;2024-03-08T01:38:14;93203.63;;;22.22;28.64
65359;BME280;52491;45.900;6.346;2024-03-08T01:40:39;93191.44;;;22.21;28.56
65359;BME280;52491;45.900;6.346;2024-03-08T01:45:33;93187.44;;;22.19;28.49
65359;BME280;52491;45.900;6.346;2024-03-08T01:47:59;93183.72;;;22.20;28.57
65359;BME280;52491;45.900;6.346;2024-03-08T01:50:25;93177.03;;;22.17;28.37
65359;BME280;52491;45.900;6.346;2024-03-08T01:52:51;93178.41;;;22.20;28.42
65359;BME280;52491;45.900;6.346;2024-03-08T01:55:17;93172.00;;;22.16;28.43
65359;BME280;52491;45.900;6.346;2024-03-08T01:57:43;93171.50;;;22.19;28.30
65359;BME280;52491;45.900;6.346;2024-03-08T02:00:09;93175.22;;;22.18;28.30
65359;BME280;52491;45.900;6.346;2024-03-08T02:02:37;93172.56;;;22.18;28.30
65359;BME280;52491;45.900;6.346;2024-03-08T02:05:03;93161.41;;;22.16;28.20
65359;BME280;52491;45.900;6.346;2024-03-08T02:07:30;93158.47;;;22.17;28.21
65359;BME280;52491;45.900;6.346;2024-03-08T02:09:56;93150.78;;;22.16;28.21
65359;BME280;52491;45.900;6.346;2024-03-08T02:12:22;93151.56;;;22.16;28.20
65359;BME280;52491;45.900;6.346;2024-03-08T02:14:48;93151.56;;;22.16;28.10
65359;BME280;52491;45.900;6.346;2024-03-08T02:17:14;93144.94;;;22.13;28.16
65359;BME280;52491;45.900;6.346;2024-03-08T02:19:39;93145.47;;;22.16;28.07
65359;BME280;52491;45.900;6.346;2024-03-08T02:22:05;93141.47;;;22.13;28.15
65359;BME280;52491;45.900;6.346;2024-03-08T02:24:32;93145.19;;;22.17;27.92
65359;BME280;52491;45.900;6.346;2024-03-08T02:26:58;93139.09;;;22.17;28.05
65359;BME280;52491;45.900;6.346;2024-03-08T02:29:24;93141.75;;;22.17;27.95
65359;BME280;52491;45.900;6.346;2024-03-08T02:31:51;93139.66;;;22.19;27.90
65359;BME280;52491;45.900;6.346;2024-03-08T02:34:17;93124.22;;;22.16;27.92
65359;BME280;52491;45.900;6.346;2024-03-08T02:36:43;93124.78;;;22.18;27.96
65359;BME280;52491;45.900;6.346;2024-03-08T02:39:09;93116.53;;;22.14;27.91
65359;BME280;52491;45.900;6.346;2024-03-08T02:41:36;93114.16;;;22.18;27.87
65359;BME280;52491;45.900;6.346;2024-03-08T02:44:02;93121.06;;;22.19;27.84
65359;BME280;52491;45.900;6.346;2024-03-08T02:46:28;93120.28;;;22.18;27.75
65359;BME280;52491;45.900;6.346;2024-03-08T02:48:53;93114.97;;;22.18;27.71
65359;BME280;52491;45.900;6.346;2024-03-08T02:51:19;93106.19;;;22.18;27.83
65359;BME280;52491;45.900;6.346;2024-03-08T02:53:45;93107.50;;;22.20;27.72
65359;BME280;52491;45.900;6.346;2024-03-08T02:56:14;93099.53;;;22.20;27.62
65359;BME280;52491;45.900;6.346;2024-03-08T02:58:42;93109.38;;;22.20;27.71
65359;BME280;52491;45.900;6.346;2024-03-08T03:01:08;93103.00;;;22.21;27.74
65359;BME280;52491;45.900;6.346;2024-03-08T03:03:35;93102.47;;;22.19;27.66
65359;BME280;52491;45.900;6.346;2024-03-08T03:06:02;93103.81;;;22.21;27.65
65359;BME280;52491;45.900;6.346;2024-03-08T03:08:28;93105.41;;;22.22;27.60
65359;BME280;52491;45.900;6.346;2024-03-08T03:10:53;93102.75;;;22.22;27.48
65359;BME280;52491;45.900;6.346;2024-03-08T03:13:22;93097.69;;;22.21;27.43
65359;BME280;52491;45.900;6.346;2024-03-08T03:15:48;93093.97;;;22.22;27.40
65359;BME280;52491;45.900;6.346;2024-03-08T03:18:14;93092.13;;;22.22;27.26
65359;BME280;52491;45.900;6.346;2024-03-08T03:20:41;93082.56;;;22.21;27.42
65359;BME280;52491;45.900;6.346;2024-03-08T03:23:08;93082.03;;;22.24;27.38
65359;BME280;52491;45.900;6.346;2024-03-08T03:25:35;93087.34;;;22.24;27.43
65359;BME280;52491;45.900;6.346;2024-03-08T03:28:01;93093.44;;;22.25;27.41
65359;BME280;52491;45.900;6.346;2024-03-08T03:30:27;93090.78;;;22.25;27.37
65359;BME280;52491;45.900;6.346;2024-03-08T03:33:00;93092.38;;;22.26;27.33
65359;BME280;52491;45.900;6.346;2024-03-08T03:35:27;93088.13;;;22.25;27.24
65359;BME280;52491;45.900;6.346;2024-03-08T03:37:53;93088.13;;;22.25;27.26
65359;BME280;52491;45.900;6.346;2024-03-08T03:40:19;93084.69;;;22.24;27.19
65359;BME280;52491;45.900;6.346;2024-03-08T03:42:45;93074.84;;;22.25;27.41
65359;BME280;52491;45.900;6.346;2024-03-08T03:45:11;93073.00;;;22.25;27.22
65359;BME280;52491;45.900;6.346;2024-03-08T03:47:36;93067.97;;;22.24;27.16
65359;BME280;52491;45.900;6.346;2024-03-08T03:50:05;93071.91;;;22.26;27.07
65359;BME280;52491;45.900;6.346;2024-03-08T03:52:31;93069.00;;;22.28;27.13
65359;BME280;52491;45.900;6.346;2024-03-08T03:54:57;93063.16;;;22.26;27.09
65359;BME280;52491;45.900;6.346;2024-03-08T03:57:23;93066.34;;;22.28;26.97
65359;BME280;52491;45.900;6.346;2024-03-08T03:59:49;93065.56;;;22.27;26.95
65359;BME280;52491;45.900;6.346;2024-03-08T04:02:20;93074.06;;;22.29;27.01
65359;BME280;52491;45.900;6.346;2024-03-08T04:04:47;93073.78;;;22.26;27.02
65359;BME280;52491;45.900;6.346;2024-03-08T04:07:13;93068.47;;;22.26;27.09
65359;BME280;52491;45.900;6.346;2024-03-08T04:09:39;93065.81;;;22.26;27.14
65359;BME280;52491;45.900;6.346;2024-03-08T04:12:05;93067.44;;;22.27;27.12
65359;BME280;52491;45.900;6.346;2024-03-08T04:14:30;93068.22;;;22.27;26.98
65359;BME280;52491;45.900;6.346;2024-03-08T04:16:56;93063.97;;;22.26;27.05
65359;BME280;52491;45.900;6.346;2024-03-08T04:19:22;93054.66;;;22.29;27.09
65359;BME280;52491;45.900;6.346;2024-03-08T04:21:47;93059.97;;;22.29;26.91
65359;BME280;52491;45.900;6.346;2024-03-08T04:24:13;93057.31;;;22.29;26.71
65359;BME280;52491;45.900;6.346;2024-03-08T04:26:39;93050.69;;;22.26;26.92
65359;BME280;52491;45.900;6.346;2024-03-08T04:29:05;93046.44;;;22.25;27.09
65359;BME280;52491;45.900;6.346;2024-03-08T04:31:31;93057.59;;;22.27;27.14
65359;BME280;52491;45.900;6.346;2024-03-08T04:33:57;93045.91;;;22.28;26.98
65359;BME280;52491;45.900;6.346;2024-03-08T04:36:22;93035.28;;;22.28;26.92
65359;BME280;52491;45.900;6.346;2024-03-08T04:38:48;93040.84;;;22.32;26.79
65359;BME280;52491;45.900;6.346;2024-03-08T04:41:14;93038.47;;;22.30;26.89
65359;BME280;52491;45.900;6.346;2024-03-08T04:43:40;93040.34;;;22.30;26.96
65359;BME280;52491;45.900;6.346;2024-03-08T04:46:06;93035.03;;;22.30;27.02
65359;BME280;52491;45.900;6.346;2024-03-08T04:48:35;93032.88;;;22.32;27.08
65359;BME280;52491;45.900;6.346;2024-03-08T04:51:03;93025.97;;;22.31;26.80
65359;BME280;52491;45.900;6.346;2024-03-08T04:53:29;93022.25;;;22.32;26.96
65359;BME280;52491;45.900;6.346;2024-03-08T04:55:55;93016.44;;;22.30;26.80
65359;BME280;52491;45.900;6.346;2024-03-08T04:58:23;93010.34;;;22.29;26.78
65359;BME280;52491;45.900;6.346;2024-03-08T05:00:49;93014.28;;;22.32;26.82
65359;BME280;52491;45.900;6.346;2024-03-08T05:03:16;93009.78;;;22.32;26.80
65359;BME280;52491;45.900;6.346;2024-03-08T05:05:42;93004.75;;;22.31;26.84
65359;BME280;52491;45.900;6.346;2024-03-08T05:08:07;93001.84;;;22.32;26.82
65359;BME280;52491;45.900;6.346;2024-03-08T05:10:33;93002.38;;;22.29;26.78
65359;BME280;52491;45.900;6.346;2024-03-08T05:12:58;92999.72;;;22.29;26.88
65359;BME280;52491;45.900;6.346;2024-03-08T05:15:24;92997.31;;;22.33;26.93
65359;BME280;52491;45.900;6.346;2024-03-08T05:17:50;93001.53;;;22.34;26.94
65359;BME280;52491;45.900;6.346;2024-03-08T05:20:15;92999.97;;;22.33;27.27
65359;BME280;52491;45.900;6.346;2024-03-08T05:22:43;92993.56;;;22.34;27.19
65359;BME280;52491;45.900;6.346;2024-03-08T05:25:08;92994.38;;;22.34;27.36
65359;BME280;52491;45.900;6.346;2024-03-08T05:27:35;92992.00;;;22.33;27.48
65359;BME280;52491;45.900;6.346;2024-03-08T05:30:03;92997.56;;;22.37;27.58
65359;BME280;52491;45.900;6.346;2024-03-08T05:32:30;92982.41;;;22.37;27.50
65359;BME280;52491;45.900;6.346;2024-03-08T05:34:55;92988.50;;;22.38;27.63
65359;BME280;52491;45.900;6.346;2024-03-08T05:37:21;92985.84;;;22.38;27.63
65359;BME280;52491;45.900;6.346;2024-03-08T05:39:47;92980.84;;;22.36;27.69
65359;BME280;52491;45.900;6.346;2024-03-08T05:42:13;92976.31;;;22.37;27.63
65359;BME280;52491;45.900;6.346;2024-03-08T05:44:39;92973.94;;;22.35;27.62
65359;BME280;52491;45.900;6.346;2024-03-08T05:47:06;92979.75;;;22.37;27.90
65359;BME280;52491;45.900;6.346;2024-03-08T05:49:32;92964.38;;;22.34;27.75
65359;BME280;52491;45.900;6.346;2024-03-08T05:51:59;92967.56;;;22.36;27.17
65359;BME280;52491;45.900;6.346;2024-03-08T05:54:25;92967.56;;;22.31;26.33
65359;BME280;52491;45.900;6.346;2024-03-08T05:56:52;92973.97;;;22.25;26.08
65359;BME280;52491;45.900;6.346;2024-03-08T05:59:19;92972.38;;;22.24;26.16
65359;BME280;52491;45.900;6.346;2024-03-08T06:01:45;92955.41;;;22.20;26.30
65359;BME280;52491;45.900;6.346;2024-03-08T06:04:12;92968.13;;;22.23;26.11
65359;BME280;52491;45.900;6.346;2024-03-08T06:06:38;92968.41;;;22.21;26.03
65359;BME280;52491;45.900;6.346;2024-03-08T06:09:05;92962.81;;;22.18;25.98
65359;BME280;52491;45.900;6.346;2024-03-08T06:11:31;92969.97;;;22.17;25.73
65359;BME280;52491;45.900;6.346;2024-03-08T06:13:57;92977.94;;;22.17;25.58
65359;BME280;52491;45.900;6.346;2024-03-08T06:16:26;92964.41;;;22.13;25.31
65359;BME280;52491;45.900;6.346;2024-03-08T06:18:56;92964.69;;;22.12;25.26
65359;BME280;52491;45.900;6.346;2024-03-08T06:21:23;92966.81;;;22.10;24.86
65359;BME280;52491;45.900;6.346;2024-03-08T06:23:53;92963.91;;;22.06;24.61
65359;BME280;52491;45.900;6.346;2024-03-08T06:26:21;92970.53;;;22.04;24.63
65359;BME280;52491;45.900;6.346;2024-03-08T06:28:47;92964.19;;;22.05;24.96
65359;BME280;52491;45.900;6.346;2024-03-08T06:31:13;92963.91;;;22.06;25.18
65359;BME280;52491;45.900;6.346;2024-03-08T06:33:40;92961.00;;;22.03;24.99
65359;BME280;52491;45.900;6.346;2024-03-08T06:36:06;92966.56;;;22.06;25.35
65359;BME280;52491;45.900;6.346;2024-03-08T06:38:32;92976.63;;;22.09;25.31
65359;BME280;52491;45.900;6.346;2024-03-08T06:40:58;92976.38;;;22.11;25.21
65359;BME280;52491;45.900;6.346;2024-03-08T06:43:23;92973.72;;;22.11;25.42
65359;BME280;52491;45.900;6.346;2024-03-08T06:45:55;92977.69;;;22.13;25.28
65359;BME280;52491;45.900;6.346;2024-03-08T06:48:21;92971.06;;;22.16;25.54
65359;BME280;52491;45.900;6.346;2024-03-08T06:50:47;92978.75;;;22.18;25.61
65359;BME280;52491;45.900;6.346;2024-03-08T06:53:13;92974.50;;;22.17;25.53
65359;BME280;52491;45.900;6.346;2024-03-08T06:55:40;92976.63;;;22.20;25.58
65359;BME280;52491;45.900;6.346;2024-03-08T06:58:05;92974.50;;;22.17;25.64
65359;BME280;52491;45.900;6.346;2024-03-08T07:00:32;92979.56;;;22.18;25.67
65359;BME280;52491;45.900;6.346;2024-03-08T07:02:58;92984.59;;;22.20;25.69
65359;BME280;52491;45.900;6.346;2024-03-08T07:05:27;92984.34;;;22.21;25.92
65359;BME280;52491;45.900;6.346;2024-03-08T07:07:53;92970.25;;;22.21;25.86
65359;BME280;52491;45.900;6.346;2024-03-08T07:10:20;92967.09;;;22.19;25.75
65359;BME280;52491;45.900;6.346;2024-03-08T07:12:46;92971.31;;;22.20;26.06
65359;BME280;52491;45.900;6.346;2024-03-08T07:15:12;92958.84;;;22.20;25.92
65359;BME280;52491;45.900;6.346;2024-03-08T07:17:39;92954.88;;;22.18;25.90
65359;BME280;52491;45.900;6.346;2024-03-08T07:20:06;92961.25;;;22.22;25.86
65359;BME280;52491;45.900;6.346;2024-03-08T07:22:37;92959.13;;;22.19;25.96
65359;BME280;52491;45.900;6.346;2024-03-08T07:25:05;92954.06;;;22.22;25.79
65359;BME280;52491;45.900;6.346;2024-03-08T07:27:32;92954.31;;;22.21;25.89
65359;BME280;52491;45.900;6.346;2024-03-08T07:30:00;92960.94;;;22.23;25.78
65359;BME280;52491;45.900;6.346;2024-03-08T07:32:26;92962.03;;;22.22;25.80
65359;BME280;52491;45.900;6.346;2024-03-08T07:34:55;92963.59;;;22.23;25.83
65359;BME280;52491;45.900;6.346;2024-03-08T07:37:21;92954.06;;;22.22;25.84
65359;BME280;52491;45.900;6.346;2024-03-08T07:39:47;92964.44;;;22.24;26.01
65359;BME280;52491;45.900;6.346;2024-03-08T07:42:13;92958.03;;;22.25;25.85
65359;BME280;52491;45.900;6.346;2024-03-08T07:44:38;92952.19;;;22.23;26.05
65359;BME280;52491;45.900;6.346;2024-03-08T07:47:04;92950.34;;;22.23;25.91
65359;BME280;52491;45.900;6.346;2024-03-08T07:49:30;92947.41;;;22.25;26.00
65359;BME280;52491;45.900;6.346;2024-03-08T07:51:56;92947.41;;;22.25;25.83
65359;BME280;52491;45.900;6.346;2024-03-08T07:54:23;92942.91;;;22.25;25.79
65359;BME280;52491;45.900;6.346;2024-03-08T07:56:49;92937.34;;;22.22;25.94
65359;BME280;52491;45.900;6.346;2024-03-08T07:59:16;92936.81;;;22.25;25.90
65359;BME280;52491;45.900;6.346;2024-03-08T08:01:42;92926.97;;;22.25;25.97
65359;BME280;52491;45.900;6.346;2024-03-08T08:04:09;92929.63;;;22.25;25.85
65359;BME280;52491;45.900;6.346;2024-03-08T08:06:38;92921.41;;;22.27;25.95
65359;BME280;52491;45.900;6.346;2024-03-08T08:09:07;92924.06;;;22.27;25.93
65359;BME280;52491;45.900;6.346;2024-03-08T08:11:33;92921.94;;;22.24;26.12
65359;BME280;52491;45.900;6.346;2024-03-08T08:13:59;92914.78;;;22.24;25.99
65359;BME280;52491;45.900;6.346;2024-03-08T08:16:25;92919.53;;;22.27;26.16
65359;BME280;52491;45.900;6.346;2024-03-08T08:18:51;92913.94;;;22.29;26.05
65359;BME280;52491;45.900;6.346;2024-03-08T08:21:18;92905.97;;;22.29;26.01
65359;BME280;52491;45.900;6.346;2024-03-08T08:23:43;92907.03;;;22.28;26.11
65359;BME280;52491;45.900;6.346;2024-03-08T08:26:10;92899.88;;;22.28;26.09
65359;BME280;52491;45.900;6.346;2024-03-08T08:28:36;92908.63;;;22.29;25.94
65359;BME280;52491;45.900;6.346;2024-03-08T08:31:03;92902.25;;;22.30;26.09
65359;BME280;52491;45.900;6.346;2024-03-08T08:33:29;92897.50;;;22.27;26.19
65359;BME280;52491;45.900;6.346;2024-03-08T08:35:55;92894.56;;;22.28;26.16
65359;BME280;52491;45.900;6.346;2024-03-08T08:38:22;92894.56;;;22.28;26.05
65359;BME280;52491;45.900;6.346;2024-03-08T08:40:48;92892.19;;;22.27;26.13
65359;BME280;52491;45.900;6.346;2024-03-08T08:43:15;92886.06;;;22.26;26.25
65359;BME280;52491;45.900;6.346;2024-03-08T08:45:41;92886.06;;;22.26;26.11
65359;BME280;52491;45.900;6.346;2024-03-08T08:48:08;92884.72;;;22.29;26.12
65359;BME280;52491;45.900;6.346;2024-03-08T08:50:35;92877.84;;;22.28;26.16
65359;BME280;52491;45.900;6.346;2024-03-08T08:53:02;92878.09;;;22.26;26.12
65359;BME280;52491;45.900;6.346;2024-03-08T08:55:29;92878.91;;;22.27;26.29
65359;BME280;52491;45.900;6.346;2024-03-08T08:57:56;92874.94;;;22.29;26.32
65359;BME280;52491;45.900;6.346;2024-03-08T09:00:22;92872.53;;;22.28;26.46
65359;BME280;52491;45.900;6.346;2024-03-08T09:02:52;92868.00;;;22.28;26.18
65359;BME280;52491;45.900;6.346;2024-03-08T09:05:20;92865.66;;;22.27;26.24
65359;BME280;52491;45.900;6.346;2024-03-08T09:07:47;92875.72;;;22.30;26.26
65359;BME280;52491;45.900;6.346;2024-03-08T09:10:12;92871.44;;;22.29;26.26
65359;BME280;52491;45.900;6.346;2024-03-08T09:12:39;92866.97;;;22.29;26.30
65359;BME280;52491;45.900;6.346;2024-03-08T09:15:06;92866.16;;;22.29;26.28
65359;BME280;52491;45.900;6.346;2024-03-08T09:17:37;92848.38;;;22.29;26.39
65359;BME280;52491;45.900;6.346;2024-03-08T09:20:06;92846.50;;;22.30;26.27
65359;BME280;52491;45.900;6.346;2024-03-08T09:22:32;92853.41;;;22.31;26.43
65359;BME280;52491;45.900;6.346;2024-03-08T09:24:58;92854.47;;;22.30;26.24
65359;BME280;52491;45.900;6.346;2024-03-08T09:27:24;92851.03;;;22.29;26.35
65359;BME280;52491;45.900;6.346;2024-03-08T09:29:50;92841.75;;;22.27;26.36
65359;BME280;52491;45.900;6.346;2024-03-08T09:32:16;92838.00;;;22.28;26.28
65359;BME280;52491;45.900;6.346;2024-03-08T09:34:42;92832.44;;;22.29;26.27
65359;BME280;52491;45.900;6.346;2024-03-08T09:37:07;92820.75;;;22.30;26.43
65359;BME280;52491;45.900;6.346;2024-03-08T09:39:34;92810.66;;;22.32;26.27
65359;BME280;52491;45.900;6.346;2024-03-08T09:42:01;92800.81;;;22.33;26.43
65359;BME280;52491;45.900;6.346;2024-03-08T09:44:27;92791.50;;;22.36;26.41
65359;BME280;52491;45.900;6.346;2024-03-08T09:46:58;92790.16;;;22.38;26.32
65359;BME280;52491;45.900;6.346;2024-03-08T09:49:24;92783.78;;;22.39;26.33
65359;BME280;52491;45.900;6.346;2024-03-08T09:51:50;92775.28;;;22.37;26.47
65359;BME280;52491;45.900;6.346;2024-03-08T09:54:17;92773.16;;;22.39;26.48
65359;BME280;52491;45.900;6.346;2024-03-08T09:56:43;92769.94;;;22.42;26.42
65359;BME280;52491;45.900;6.346;2024-03-08T09:59:10;92762.75;;;22.43;26.48
65359;BME280;52491;45.900;6.346;2024-03-08T10:01:36;92757.97;;;22.45;26.57
65359;BME280;52491;45.900;6.346;2024-03-08T10:04:04;92748.44;;;22.44;26.58
65359;BME280;52491;45.900;6.346;2024-03-08T10:06:30;92746.00;;;22.47;26.49
65359;BME280;52491;45.900;6.346;2024-03-08T10:08:57;92737.75;;;22.49;26.56
65359;BME280;52491;45.900;6.346;2024-03-08T10:11:24;92725.56;;;22.48;26.69
65359;BME280;52491;45.900;6.346;2024-03-08T10:13:50;92726.88;;;22.50;26.78
65359;BME280;52491;45.900;6.346;2024-03-08T10:16:16;92719.97;;;22.49;26.66
65359;BME280;52491;45.900;6.346;2024-03-08T10:18:42;92717.03;;;22.51;26.79
65359;BME280;52491;45.900;6.346;2024-03-08T10:21:11;92705.63;;;22.50;26.72
65359;BME280;52491;45.900;6.346;2024-03-08T10:23:37;92698.66;;;22.54;26.71
65359;BME280;52491;45.900;6.346;2024-03-08T10:28:31;92685.13;;;22.56;27.04
65359;BME280;52491;45.900;6.346;2024-03-08T10:30:57;92667.31;;;22.56;26.70
65359;BME280;52491;45.900;6.346;2024-03-08T10:33:23;92662.28;;;22.55;26.92
65359;BME280;52491;45.900;6.346;2024-03-08T10:35:49;92669.97;;;22.56;27.01
65359;BME280;52491;45.900;6.346;2024-03-08T10:38:18;92681.09;;;22.59;26.82
65359;BME280;52491;45.900;6.346;2024-03-08T10:40:45;92676.34;;;22.55;26.92
65359;BME280;52491;45.900;6.346;2024-03-08T10:43:22;92670.47;;;22.59;26.89
65359;BME280;52491;45.900;6.346;2024-03-08T10:45:53;92673.41;;;22.57;26.99
65359;BME280;52491;45.900;6.346;2024-03-08T10:48:30;92671.50;;;22.63;26.87
65359;BME280;52491;45.900;6.346;2024-03-08T10:50:59;92663.81;;;22.61;27.06
65359;BME280;52491;45.900;6.346;2024-03-08T10:53:27;92659.28;;;22.62;26.94
65359;BME280;52491;45.900;6.346;2024-03-08T10:55:56;92663.25;;;22.64;26.98
65359;BME280;52491;45.900;6.346;2024-03-08T10:58:23;92657.94;;;22.64;27.11
65359;BME280;52491;45.900;6.346;2024-03-08T11:00:53;92645.19;;;22.66;27.07
65359;BME280;52491;45.900;6.346;2024-03-08T11:05:46;92655.50;;;22.68;27.13
65359;BME280;52491;45.900;6.346;2024-03-08T11:08:17;92654.16;;;22.70;27.08
65359;BME280;52491;45.900;6.346;2024-03-08T11:13:43;92655.97;;;22.75;27.04
65359;BME280;52491;45.900;6.346;2024-03-08T11:16:10;92648.06;;;22.70;27.09
65359;BME280;52491;45.900;6.346;2024-03-08T11:18:37;92653.31;;;22.75;27.15
65359;BME280;52491;45.900;6.346;2024-03-08T11:21:04;92654.91;;;22.76;27.02
65359;BME280;52491;45.900;6.346;2024-03-08T11:23:32;92647.72;;;22.76;27.20
65359;BME280;52491;45.900;6.346;2024-03-08T11:25:59;92646.94;;;22.76;27.19
65359;BME280;52491;45.900;6.346;2024-03-08T11:28:25;92641.63;;;22.76;27.16
65359;BME280;52491;45.900;6.346;2024-03-08T11:33:19;92620.66;;;22.74;27.24
65359;BME280;52491;45.900;6.346;2024-03-08T11:35:45;92618.28;;;22.73;27.36
65359;BME280;52491;45.900;6.346;2024-03-08T11:38:12;92611.88;;;22.74;27.35
65359;BME280;52491;45.900;6.346;2024-03-08T11:40:39;92602.31;;;22.73;27.40
65359;BME280;52491;45.900;6.346;2024-03-08T11:43:05;92603.13;;;22.73;27.34
65359;BME280;52491;45.900;6.346;2024-03-08T11:45:35;92592.50;;;22.73;27.38
65359;BME280;52491;45.900;6.346;2024-03-08T11:48:02;92583.22;;;22.71;27.30
65359;BME280;52491;45.900;6.346;2024-03-08T11:50:29;92581.06;;;22.73;27.29
65359;BME280;52491;45.900;6.346;2024-03-08T11:55:22;92584.75;;;22.77;27.49
65359;BME280;52491;45.900;6.346;2024-03-08T11:58:00;92590.56;;;22.79;27.06
65359;BME280;52491;45.900;6.346;2024-03-08T12:00:26;92583.91;;;22.82;27.51
65359;BME280;52491;45.900;6.346;2024-03-08T12:05:20;92570.34;;;22.83;27.50
65359;BME280;52491;45.900;6.346;2024-03-08T12:07:57;92553.88;;;22.81;27.42
65359;BME280;52491;45.900;6.346;2024-03-08T12:10:24;92553.38;;;22.79;27.40
65359;BME280;52491;45.900;6.346;2024-03-08T12:12:54;92556.25;;;22.83;27.30
65359;BME280;52491;45.900;6.346;2024-03-08T12:15:23;92544.81;;;22.82;27.36
65359;BME280;52491;45.900;6.346;2024-03-08T12:17:50;92538.44;;;22.83;27.51
65359;BME280;52491;45.900;6.346;2024-03-08T12:20:21;92526.22;;;22.82;27.48
65359;BME280;52491;45.900;6.346;2024-03-08T12:22:49;92526.53;;;22.81;27.40
65359;BME280;52491;45.900;6.346;2024-03-08T12:25:15;92522.50;;;22.83;27.48
65359;BME280;52491;45.900;6.346;2024-03-08T12:27:43;92520.91;;;22.82;27.42
65359;BME280;52491;45.900;6.346;2024-03-08T12:32:36;92510.59;;;22.81;27.50
65359;BME280;52491;45.900;6.346;2024-03-08T12:35:07;92514.81;;;22.82;27.38
65359;BME280;52491;45.900;6.346;2024-03-08T12:37:35;92507.72;;;22.77;27.47
65359;BME280;52491;45.900;6.346;2024-03-08T12:40:07;92502.63;;;22.81;27.63
65359;BME280;52491;45.900;6.346;2024-03-08T12:42:33;92499.16;;;22.80;27.69
65359;BME280;52491;45.900;6.346;2024-03-08T12:45:00;92497.28;;;22.81;27.51
65359;BME280;52491;45.900;6.346;2024-03-08T12:47:27;92496.50;;;22.80;27.57
65359;BME280;52491;45.900;6.346;2024-03-08T12:49:55;92482.13;;;22.81;27.51
65359;BME280;52491;45.900;6.346;2024-03-08T12:52:21;92477.91;;;22.80;27.61
65359;BME280;52491;45.900;6.346;2024-03-08T12:54:47;92481.88;;;22.83;27.68
65359;BME280;52491;45.900;6.346;2024-03-08T12:57:13;92480.56;;;22.80;27.39
65359;BME280;52491;45.900;6.346;2024-03-08T12:59:39;92482.13;;;22.81;27.53
65359;BME280;52491;45.900;6.346;2024-03-08T13:02:05;92475.25;;;22.80;27.67
65359;BME280;52491;45.900;6.346;2024-03-08T13:04:36;92469.38;;;22.83;27.62
65359;BME280;52491;45.900;6.346;2024-03-08T13:07:02;92465.09;;;22.82;27.62
65359;BME280;52491;45.900;6.346;2024-03-08T13:09:29;92453.91;;;22.85;27.56
65359;BME280;52491;45.900;6.346;2024-03-08T13:11:54;92444.38;;;22.84;27.55
65359;BME280;52491;45.900;6.346;2024-03-08T13:14:21;92441.63;;;22.89;27.76
65359;BME280;52491;45.900;6.346;2024-03-08T13:16:47;92440.06;;;22.88;27.72